Time;durP1;ratioP1;P1;durP2;ratioP2;P2;SDS_P1;SDS_P2;PMS_P1;PMS_P2;Temp;Humidity;BMP_temperature;BMP_pressure;BME280_temperature;BME280_humidity;BME280_pressure;Samples;Min_cycle;Max_cycle;Signal;HPM_P1;HPM_P2
2022/07/31 00:00:56;;;;;;;5.10;3.50;;;;;;;;;;5074506;28;20674;-71
2022/07/31 00:03:22;;;;;;;3.03;2.73;;;;;;;;;;5073140;28;20729;-71
2022/07/31 00:05:48;;;;;;;3.83;3.20;;;;;;;;;;5073118;28;20629;-70
2022/07/31 00:08:14;;;;;;;4.47;2.87;;;;;;;;;;5074714;28;20178;-71
2022/07/31 00:10:40;;;;;;;5.63;3.23;;;;;;;;;;5072986;28;20240;-71
2022/07/31 00:13:06;;;;;;;5.87;2.80;;;;;;;;;;5074270;28;20197;-71
2022/07/31 00:15:32;;;;;;;4.37;3.03;;;;;;;;;;5074709;28;20633;-71
2022/07/31 00:17:58;;;;;;;6.53;3.23;;;;;;;;;;5074152;28;20646;-71
2022/07/31 00:20:24;;;;;;;3.93;3.20;;;;;;;;;;5072785;28;20688;-71
2022/07/31 00:22:50;;;;;;;10.30;3.20;;;;;;;;;;5074249;28;20730;-71
2022/07/31 00:25:16;;;;;;;7.37;3.10;;;;;;;;;;5072883;28;20181;-71
2022/07/31 00:27:42;;;;;;;4.67;3.50;;;;;;;;;;5074408;28;20184;-71
2022/07/31 00:30:11;;;;;;;4.60;3.20;;;;;;;;;;5074089;28;20197;-71
2022/07/31 00:32:37;;;;;;;3.10;2.50;;;;;;;;;;5073921;28;20184;-71
2022/07/31 00:35:03;;;;;;;5.50;3.30;;;;;;;;;;5072675;28;20186;-71
2022/07/31 00:37:29;;;;;;;6.07;3.30;;;;;;;;;;5073862;28;20188;-71
2022/07/31 00:39:55;;;;;;;7.13;3.07;;;;;;;;;;5072538;28;20202;-71
2022/07/31 00:42:22;;;;;;;6.47;3.10;;;;;;;;;;5073772;28;20275;-71
2022/07/31 00:44:48;;;;;;;6.17;3.20;;;;;;;;;;5072559;28;20182;-71
2022/07/31 00:47:14;;;;;;;4.07;3.37;;;;;;;;;;5072307;28;20258;-72
2022/07/31 00:49:40;;;;;;;5.20;3.03;;;;;;;;;;5072198;28;20178;-72
2022/07/31 00:52:06;;;;;;;3.97;2.60;;;;;;;;;;5073545;28;20189;-71
2022/07/31 00:54:32;;;;;;;4.53;2.60;;;;;;;;;;5074244;28;20181;-71
2022/07/31 00:56:58;;;;;;;4.07;2.80;;;;;;;;;;5072260;28;20209;-71
2022/07/31 00:59:24;;;;;;;6.80;2.83;;;;;;;;;;5072996;28;20189;-70
2022/07/31 01:01:50;;;;;;;4.10;2.90;;;;;;;;;;5073777;28;20275;-71
2022/07/31 01:04:17;;;;;;;5.27;2.83;;;;;;;;;;5072212;28;20617;-71
2022/07/31 01:06:44;;;;;;;4.77;2.80;;;;;;;;;;5074054;28;20231;-71
2022/07/31 01:09:10;;;;;;;5.03;2.93;;;;;;;;;;5073434;28;20607;-71
2022/07/31 01:11:41;;;;;;;4.50;2.70;;;;;;;;;;5073189;28;20249;-71
2022/07/31 01:14:08;;;;;;;5.73;2.87;;;;;;;;;;5073706;28;20181;-71
2022/07/31 01:16:40;;;;;;;6.43;3.40;;;;;;;;;;5073695;28;20233;-71
2022/07/31 01:19:29;;;;;;;2.87;2.57;;;;;;;;;;5072135;28;20260;-71
2022/07/31 01:22:01;;;;;;;5.33;2.97;;;;;;;;;;5069125;28;20770;-71
2022/07/31 01:24:30;;;;;;;5.67;3.40;;;;;;;;;;5073722;28;20697;-71
2022/07/31 01:27:05;;;;;;;6.30;2.83;;;;;;;;;;5073303;28;20169;-71
2022/07/31 01:29:34;;;;;;;4.70;3.37;;;;;;;;;;5073142;28;20268;-71
2022/07/31 01:32:03;;;;;;;5.27;2.93;;;;;;;;;;5074084;28;20209;-71
2022/07/31 01:34:44;;;;;;;7.10;2.93;;;;;;;;;;5073450;28;20186;-71
2022/07/31 01:37:13;;;;;;;8.00;3.87;;;;;;;;;;5072133;28;20638;-71
2022/07/31 01:39:42;;;;;;;3.70;3.20;;;;;;;;;;5073680;28;20193;-71
2022/07/31 01:42:09;;;;;;;3.70;3.20;;;;;;;;;;5073470;28;20200;-71
2022/07/31 01:44:38;;;;;;;6.03;3.10;;;;;;;;;;5073250;28;20642;-71
2022/07/31 01:47:04;;;;;;;7.63;3.40;;;;;;;;;;5073249;28;20642;-71
2022/07/31 01:49:31;;;;;;;9.10;2.93;;;;;;;;;;5073171;28;20174;-71
2022/07/31 01:51:57;;;;;;;5.03;3.37;;;;;;;;;;5073326;28;20178;-71
2022/07/31 01:54:24;;;;;;;6.97;3.27;;;;;;;;;;5073095;28;20260;-71
2022/07/31 01:56:50;;;;;;;3.80;3.40;;;;;;;;;;5072941;28;20630;-71
2022/07/31 01:59:18;;;;;;;4.27;3.57;;;;;;;;;;5071881;28;20186;-71
2022/07/31 02:01:44;;;;;;;4.17;3.47;;;;;;;;;;5072948;28;20570;-71
2022/07/31 02:04:11;;;;;;;7.03;3.87;;;;;;;;;;5073090;28;20189;-71
2022/07/31 02:06:39;;;;;;;6.20;4.00;;;;;;;;;;5072970;28;20257;-71
2022/07/31 02:09:05;;;;;;;6.20;3.70;;;;;;;;;;5073296;28;20644;-71
2022/07/31 02:11:31;;;;;;;5.53;3.60;;;;;;;;;;5074433;28;20213;-72
2022/07/31 02:13:57;;;;;;;3.50;3.20;;;;;;;;;;5076720;28;20174;-71
2022/07/31 02:16:24;;;;;;;7.53;3.80;;;;;;;;;;5076466;28;20178;-71
2022/07/31 02:18:51;;;;;;;4.40;3.67;;;;;;;;;;5076410;28;20170;-72
2022/07/31 02:21:17;;;;;;;6.20;3.43;;;;;;;;;;5075072;28;20225;-71
2022/07/31 02:23:43;;;;;;;5.43;3.70;;;;;;;;;;5076505;28;20284;-71
2022/07/31 02:26:09;;;;;;;5.93;3.43;;;;;;;;;;5076269;28;20184;-71
2022/07/31 02:28:37;;;;;;;4.07;3.47;;;;;;;;;;5076280;28;20170;-71
2022/07/31 02:31:03;;;;;;;5.90;3.70;;;;;;;;;;5076221;28;20220;-71
2022/07/31 02:33:30;;;;;;;8.83;3.53;;;;;;;;;;5076380;28;20231;-70
2022/07/31 02:35:56;;;;;;;4.87;4.00;;;;;;;;;;5076403;28;20184;-71
2022/07/31 02:38:25;;;;;;;7.17;3.73;;;;;;;;;;5074818;28;20561;-71
2022/07/31 02:40:52;;;;;;;8.27;4.13;;;;;;;;;;5074643;28;20207;-72
2022/07/31 02:43:19;;;;;;;5.57;3.40;;;;;;;;;;5076271;28;20281;-71
2022/07/31 02:45:45;;;;;;;5.27;3.80;;;;;;;;;;5075826;28;20642;-71
2022/07/31 02:48:11;;;;;;;5.27;4.07;;;;;;;;;;5076240;28;20205;-71
2022/07/31 02:50:38;;;;;;;5.73;4.43;;;;;;;;;;5075770;28;20200;-71
2022/07/31 02:53:04;;;;;;;6.23;4.40;;;;;;;;;;5074572;28;20299;-70
2022/07/31 02:55:30;;;;;;;6.43;4.37;;;;;;;;;;5075848;28;20200;-71
2022/07/31 02:57:56;;;;;;;4.53;4.00;;;;;;;;;;5075926;28;20178;-72
2022/07/31 03:00:25;;;;;;;5.33;4.20;;;;;;;;;;5074419;28;20632;-71
2022/07/31 03:02:52;;;;;;;6.63;3.90;;;;;;;;;;5074404;28;20208;-71
2022/07/31 03:05:18;;;;;;;5.17;3.33;;;;;;;;;;5075889;28;20174;-71
2022/07/31 03:07:44;;;;;;;6.37;3.87;;;;;;;;;;5075908;28;20181;-71
2022/07/31 03:10:11;;;;;;;6.50;3.97;;;;;;;;;;5075358;28;20209;-71
2022/07/31 03:12:39;;;;;;;5.53;3.90;;;;;;;;;;5074336;28;20236;-71
2022/07/31 03:15:08;;;;;;;5.37;3.60;;;;;;;;;;5075362;28;20185;-70
2022/07/31 03:17:35;;;;;;;5.50;3.53;;;;;;;;;;5075418;28;20189;-70
2022/07/31 03:20:01;;;;;;;4.50;3.43;;;;;;;;;;5075345;28;20225;-70
2022/07/31 03:22:27;;;;;;;10.03;4.23;;;;;;;;;;5073721;28;20264;-70
2022/07/31 03:24:54;;;;;;;6.07;4.30;;;;;;;;;;5073898;28;20527;-70
2022/07/31 03:27:20;;;;;;;6.83;4.20;;;;;;;;;;5074588;28;20226;-70
2022/07/31 03:29:46;;;;;;;4.43;3.87;;;;;;;;;;5075403;28;20201;-70
2022/07/31 03:32:12;;;;;;;5.37;3.67;;;;;;;;;;5073762;28;20272;-70
2022/07/31 03:34:38;;;;;;;4.40;4.00;;;;;;;;;;5075011;28;20637;-70
2022/07/31 03:37:04;;;;;;;5.80;3.73;;;;;;;;;;5074912;28;20182;-70
2022/07/31 03:39:30;;;;;;;9.17;4.53;;;;;;;;;;5073666;28;20178;-70
2022/07/31 03:41:57;;;;;;;9.40;4.07;;;;;;;;;;5074808;28;20258;-70
2022/07/31 03:44:24;;;;;;;5.23;4.30;;;;;;;;;;5074862;28;20178;-70
2022/07/31 03:46:50;;;;;;;6.60;4.20;;;;;;;;;;5073549;28;20185;-70
2022/07/31 03:49:16;;;;;;;4.60;3.73;;;;;;;;;;5074631;28;20174;-70
2022/07/31 03:51:42;;;;;;;4.07;3.57;;;;;;;;;;5073311;28;20198;-70
2022/07/31 03:54:08;;;;;;;4.77;3.80;;;;;;;;;;5074596;28;20170;-71
2022/07/31 03:56:35;;;;;;;4.40;3.67;;;;;;;;;;5074541;28;20169;-70
2022/07/31 03:59:02;;;;;;;4.23;3.53;;;;;;;;;;5073322;28;20182;-70
2022/07/31 04:01:28;;;;;;;4.87;3.70;;;;;;;;;;5074186;28;20197;-70
2022/07/31 04:04:00;;;;;;;8.53;4.00;;;;;;;;;;5073154;28;20649;-70
2022/07/31 04:06:26;;;;;;;5.67;3.43;;;;;;;;;;5074594;28;20173;-70
2022/07/31 04:08:52;;;;;;;4.83;3.43;;;;;;;;;;5074811;28;20257;-70
2022/07/31 04:11:18;;;;;;;5.90;3.50;;;;;;;;;;5073920;28;20701;-70
2022/07/31 04:13:44;;;;;;;6.67;4.17;;;;;;;;;;5074307;28;20260;-70
2022/07/31 04:16:10;;;;;;;9.10;4.20;;;;;;;;;;5074159;28;20213;-70
2022/07/31 04:18:36;;;;;;;7.93;3.70;;;;;;;;;;5074039;28;20182;-70
2022/07/31 04:21:02;;;;;;;5.60;3.80;;;;;;;;;;5072619;28;20209;-70
2022/07/31 04:23:28;;;;;;;5.00;3.60;;;;;;;;;;5074891;28;20287;-70
2022/07/31 04:25:54;;;;;;;4.67;3.93;;;;;;;;;;5072674;28;20170;-70
2022/07/31 04:28:20;;;;;;;6.60;3.70;;;;;;;;;;5097898;22;20233;-67
2022/07/31 04:30:46;;;;;;;5.40;3.70;;;;;;;;;;5074987;28;20173;-68
2022/07/31 04:33:13;;;;;;;8.87;3.97;;;;;;;;;;5072288;28;20272;-68
2022/07/31 04:35:40;;;;;;;7.40;4.40;;;;;;;;;;5073916;28;20697;-68
2022/07/31 04:38:06;;;;;;;6.20;3.27;;;;;;;;;;5074840;28;20247;-68
2022/07/31 04:40:32;;;;;;;11.40;3.67;;;;;;;;;;5073802;28;20177;-67
2022/07/31 04:42:58;;;;;;;5.23;3.80;;;;;;;;;;5074341;28;20209;-68
2022/07/31 04:45:24;;;;;;;7.10;4.43;;;;;;;;;;5075250;28;20195;-68
2022/07/31 04:47:50;;;;;;;6.67;3.70;;;;;;;;;;5074668;28;20551;-68
2022/07/31 04:50:16;;;;;;;6.53;4.23;;;;;;;;;;5074642;28;20674;-68
2022/07/31 04:52:42;;;;;;;5.83;4.00;;;;;;;;;;5074718;28;20220;-68
2022/07/31 04:55:08;;;;;;;6.77;4.67;;;;;;;;;;5073577;28;20226;-68
2022/07/31 04:57:34;;;;;;;6.70;4.77;;;;;;;;;;5073443;28;20194;-68
2022/07/31 05:00:00;;;;;;;5.83;4.27;;;;;;;;;;5073749;28;20181;-68
2022/07/31 05:02:26;;;;;;;7.77;4.33;;;;;;;;;;5072219;28;20342;-68
2022/07/31 05:04:52;;;;;;;7.50;4.77;;;;;;;;;;5072191;28;20299;-68
2022/07/31 05:07:18;;;;;;;6.57;5.40;;;;;;;;;;5072078;28;20673;-68
2022/07/31 05:09:44;;;;;;;6.63;5.10;;;;;;;;;;5073640;28;20178;-68
2022/07/31 05:12:10;;;;;;;7.73;4.40;;;;;;;;;;5074812;28;20646;-68
2022/07/31 05:14:36;;;;;;;6.13;5.33;;;;;;;;;;5074826;28;20200;-68
2022/07/31 05:17:02;;;;;;;9.67;5.50;;;;;;;;;;5074858;28;20693;-68
2022/07/31 05:19:29;;;;;;;20.27;5.43;;;;;;;;;;5074856;28;20250;-69
2022/07/31 05:21:55;;;;;;;7.83;5.70;;;;;;;;;;5073323;28;20197;-69
2022/07/31 05:24:22;;;;;;;7.30;5.90;;;;;;;;;;5072373;28;20181;-69
2022/07/31 05:26:48;;;;;;;7.40;6.20;;;;;;;;;;5072955;28;20220;-68
2022/07/31 05:29:14;;;;;;;6.87;6.17;;;;;;;;;;5073349;28;20158;-69
2022/07/31 05:31:40;;;;;;;7.97;5.57;;;;;;;;;;5072996;28;20181;-68
2022/07/31 05:34:06;;;;;;;8.50;5.87;;;;;;;;;;5073221;28;20177;-69
2022/07/31 05:36:32;;;;;;;8.67;6.50;;;;;;;;;;5071752;28;20177;-69
2022/07/31 05:38:58;;;;;;;8.80;6.40;;;;;;;;;;5072978;28;20178;-69
2022/07/31 05:41:24;;;;;;;7.73;6.33;;;;;;;;;;5072916;28;20189;-68
2022/07/31 05:43:50;;;;;;;7.93;5.83;;;;;;;;;;5072931;28;20572;-69
2022/07/31 05:46:16;;;;;;;7.77;5.47;;;;;;;;;;5074782;28;20736;-69
2022/07/31 05:48:43;;;;;;;8.83;6.07;;;;;;;;;;5077721;28;20528;-69
2022/07/31 05:51:09;;;;;;;6.70;5.90;;;;;;;;;;5077104;28;20178;-69
2022/07/31 05:53:36;;;;;;;5.80;5.10;;;;;;;;;;5076814;28;20256;-69
2022/07/31 05:56:02;;;;;;;7.57;6.47;;;;;;;;;;5077164;28;20188;-68
2022/07/31 05:58:28;;;;;;;10.27;6.43;;;;;;;;;;5075896;28;20205;-69
2022/07/31 06:00:54;;;;;;;7.00;6.23;;;;;;;;;;5076947;28;20186;-69
2022/07/31 06:03:26;;;;;;;8.60;6.90;;;;;;;;;;5076190;28;20251;-69
2022/07/31 06:05:52;;;;;;;7.83;6.00;;;;;;;;;;5075433;28;20307;-69
2022/07/31 06:08:18;;;;;;;9.10;6.30;;;;;;;;;;5076858;28;20189;-68
2022/07/31 06:10:44;;;;;;;8.93;5.80;;;;;;;;;;5075597;28;20178;-69
2022/07/31 06:13:11;;;;;;;9.43;5.93;;;;;;;;;;5076526;28;20174;-69
2022/07/31 06:15:37;;;;;;;8.63;5.87;;;;;;;;;;5075113;28;20185;-68
2022/07/31 06:18:03;;;;;;;8.17;5.60;;;;;;;;;;5076586;28;20704;-69
2022/07/31 06:20:29;;;;;;;6.67;5.27;;;;;;;;;;5076519;28;20705;-69
2022/07/31 06:22:55;;;;;;;7.13;5.00;;;;;;;;;;5076779;28;20284;-69
2022/07/31 06:25:21;;;;;;;6.07;5.33;;;;;;;;;;5076639;28;20170;-69
2022/07/31 06:27:47;;;;;;;5.67;4.93;;;;;;;;;;5074878;28;20225;-69
2022/07/31 06:30:13;;;;;;;4.87;4.27;;;;;;;;;;5076166;28;20192;-69
2022/07/31 06:32:39;;;;;;;6.20;4.33;;;;;;;;;;5076179;28;20213;-68
2022/07/31 06:35:05;;;;;;;4.83;4.33;;;;;;;;;;5075068;28;20221;-69
2022/07/31 06:37:32;;;;;;;5.90;4.33;;;;;;;;;;5076105;28;20732;-69
2022/07/31 06:39:58;;;;;;;5.03;4.13;;;;;;;;;;5076123;28;20234;-68
2022/07/31 06:42:24;;;;;;;5.60;4.23;;;;;;;;;;5076291;28;20292;-69
2022/07/31 06:44:51;;;;;;;7.33;5.20;;;;;;;;;;5076082;28;20181;-69
2022/07/31 06:47:18;;;;;;;4.93;3.83;;;;;;;;;;5075867;28;20201;-69
2022/07/31 06:49:44;;;;;;;6.47;3.87;;;;;;;;;;5074634;28;20184;-69
2022/07/31 06:52:10;;;;;;;6.47;4.03;;;;;;;;;;5074567;28;20182;-68
2022/07/31 06:54:36;;;;;;;4.20;3.70;;;;;;;;;;5074609;28;20244;-69
2022/07/31 06:57:02;;;;;;;4.63;3.60;;;;;;;;;;5074032;28;20201;-68
2022/07/31 06:59:28;;;;;;;8.17;4.17;;;;;;;;;;5075040;28;20182;-69
2022/07/31 07:01:54;;;;;;;3.67;3.37;;;;;;;;;;5075777;28;20208;-69
2022/07/31 07:04:20;;;;;;;4.37;3.57;;;;;;;;;;5074553;28;20182;-69
2022/07/31 07:06:46;;;;;;;6.40;3.57;;;;;;;;;;5075645;28;20651;-69
2022/07/31 07:09:12;;;;;;;4.60;3.33;;;;;;;;;;5074481;28;20174;-69
2022/07/31 07:11:38;;;;;;;4.47;3.37;;;;;;;;;;5074618;28;20177;-69
2022/07/31 07:14:04;;;;;;;3.63;3.33;;;;;;;;;;5074300;28;20181;-69
2022/07/31 07:16:30;;;;;;;3.83;3.53;;;;;;;;;;5075393;28;20182;-68
2022/07/31 07:18:56;;;;;;;4.47;4.03;;;;;;;;;;5074107;28;20178;-68
2022/07/31 07:21:22;;;;;;;6.77;4.03;;;;;;;;;;5075385;28;20178;-69
2022/07/31 07:23:48;;;;;;;4.17;3.77;;;;;;;;;;5075394;28;20209;-69
2022/07/31 07:26:14;;;;;;;3.43;3.13;;;;;;;;;;5075495;28;20582;-69
2022/07/31 07:28:40;;;;;;;4.07;3.53;;;;;;;;;;5075236;28;20597;-69
2022/07/31 07:31:06;;;;;;;4.00;3.23;;;;;;;;;;5075249;28;20252;-69
2022/07/31 07:33:33;;;;;;;5.80;3.13;;;;;;;;;;5075629;28;20178;-69
2022/07/31 07:35:59;;;;;;;5.20;3.53;;;;;;;;;;5073984;28;20220;-69
2022/07/31 07:38:24;;;;;;;5.93;3.40;;;;;;;;;;5075510;28;20198;-69
2022/07/31 07:40:51;;;;;;;6.87;4.30;;;;;;;;;;5075568;28;20212;-69
2022/07/31 07:43:17;;;;;;;6.83;4.70;;;;;;;;;;5073926;28;20262;-69
2022/07/31 07:45:43;;;;;;;12.63;7.67;;;;;;;;;;5073720;28;20177;-69
2022/07/31 07:48:09;;;;;;;4.23;3.50;;;;;;;;;;5073669;28;20204;-70
2022/07/31 07:50:35;;;;;;;4.63;3.60;;;;;;;;;;5074362;28;20549;-69
2022/07/31 07:53:01;;;;;;;6.23;3.57;;;;;;;;;;5073550;28;20562;-69
2022/07/31 07:55:27;;;;;;;4.63;3.30;;;;;;;;;;5074836;28;20185;-69
2022/07/31 07:57:53;;;;;;;4.87;4.00;;;;;;;;;;5074874;28;20280;-69
2022/07/31 08:00:19;;;;;;;7.00;4.23;;;;;;;;;;5074673;28;20256;-70
2022/07/31 08:02:47;;;;;;;4.00;3.60;;;;;;;;;;5074703;28;20296;-70
2022/07/31 08:05:14;;;;;;;6.53;3.53;;;;;;;;;;5073310;28;20181;-69
2022/07/31 08:07:41;;;;;;;6.67;5.00;;;;;;;;;;5074146;28;20619;-68
2022/07/31 08:10:08;;;;;;;5.30;3.70;;;;;;;;;;5072417;28;20272;-70
2022/07/31 08:12:34;;;;;;;4.73;4.00;;;;;;;;;;5074517;28;20205;-69
2022/07/31 08:15:01;;;;;;;6.77;5.43;;;;;;;;;;5074608;28;20186;-69
2022/07/31 08:17:27;;;;;;;5.90;4.40;;;;;;;;;;5073121;28;20601;-69
2022/07/31 08:19:52;;;;;;;6.70;4.70;;;;;;;;;;5072946;28;20204;-69
2022/07/31 08:22:18;;;;;;;6.47;4.33;;;;;;;;;;5073038;28;20733;-67
2022/07/31 08:24:44;;;;;;;8.43;5.63;;;;;;;;;;5072662;28;20638;-68
2022/07/31 08:27:24;;;;;;;6.57;5.33;;;;;;;;;;5072460;28;20258;-68
2022/07/31 08:29:50;;;;;;;8.03;6.60;;;;;;;;;;5074152;28;20165;-68
2022/07/31 08:32:16;;;;;;;12.40;8.07;;;;;;;;;;5072549;28;20178;-68
2022/07/31 08:34:43;;;;;;;9.97;7.50;;;;;;;;;;5073771;28;20258;-68
2022/07/31 08:37:09;;;;;;;11.27;7.20;;;;;;;;;;5074007;28;20549;-68
2022/07/31 08:39:36;;;;;;;7.27;5.20;;;;;;;;;;5073567;28;20638;-68
2022/07/31 08:42:06;;;;;;;8.47;5.23;;;;;;;;;;5072253;28;20209;-68
2022/07/31 08:44:32;;;;;;;5.17;4.60;;;;;;;;;;5073557;28;20173;-68
2022/07/31 08:46:58;;;;;;;5.23;3.87;;;;;;;;;;5073508;28;20197;-68
2022/07/31 08:49:25;;;;;;;6.30;4.47;;;;;;;;;;5073626;28;20180;-68
2022/07/31 08:51:51;;;;;;;5.83;3.77;;;;;;;;;;5073799;28;20251;-68
2022/07/31 08:54:18;;;;;;;6.53;3.73;;;;;;;;;;5073438;28;20173;-68
2022/07/31 08:56:46;;;;;;;3.97;2.90;;;;;;;;;;5073322;28;20174;-67
2022/07/31 08:59:15;;;;;;;3.63;2.80;;;;;;;;;;5072131;28;20197;-67
2022/07/31 09:01:41;;;;;;;4.83;3.17;;;;;;;;;;5071951;28;20198;-66
2022/07/31 09:04:07;;;;;;;3.50;2.73;;;;;;;;;;5073166;28;20182;-67
2022/07/31 09:06:33;;;;;;;3.80;2.90;;;;;;;;;;5073178;28;20227;-67
2022/07/31 09:08:59;;;;;;;3.43;3.00;;;;;;;;;;5071830;28;20658;-67
2022/07/31 09:11:25;;;;;;;3.20;2.83;;;;;;;;;;5071859;28;20174;-67
2022/07/31 09:13:52;;;;;;;4.37;3.20;;;;;;;;;;5071931;28;20181;-67
2022/07/31 09:16:18;;;;;;;3.77;2.77;;;;;;;;;;5073160;28;20261;-66
2022/07/31 09:18:44;;;;;;;2.93;2.73;;;;;;;;;;5073025;28;20276;-66
2022/07/31 09:21:10;;;;;;;3.40;3.10;;;;;;;;;;5072788;28;20523;-67
2022/07/31 09:23:44;;;;;;;4.50;3.37;;;;;;;;;;5073046;28;20266;-67
2022/07/31 09:26:10;;;;;;;3.47;3.00;;;;;;;;;;5071825;28;20202;-67
2022/07/31 09:28:38;;;;;;;3.93;3.47;;;;;;;;;;5071376;28;20248;-67
2022/07/31 09:31:05;;;;;;;5.20;3.53;;;;;;;;;;5071740;28;20627;-67
2022/07/31 09:33:31;;;;;;;5.20;3.43;;;;;;;;;;5071692;28;20375;-66
2022/07/31 09:35:58;;;;;;;4.47;3.00;;;;;;;;;;5071705;28;20186;-67
2022/07/31 09:38:34;;;;;;;5.00;3.27;;;;;;;;;;5071626;28;20201;-67
2022/07/31 09:41:27;;;;;;;4.57;3.37;;;;;;;;;;5072961;28;20180;-67
2022/07/31 09:44:03;;;;;;;3.00;2.63;;;;;;;;;;5071884;28;20306;-67
2022/07/31 09:46:39;;;;;;;3.03;2.73;;;;;;;;;;5073173;28;20170;-67
2022/07/31 09:49:05;;;;;;;2.97;2.77;;;;;;;;;;5073016;28;20178;-67
2022/07/31 09:51:38;;;;;;;3.60;3.10;;;;;;;;;;5073244;28;20192;-67
2022/07/31 09:54:04;;;;;;;3.30;2.80;;;;;;;;;;5072959;28;20257;-68
2022/07/31 09:56:31;;;;;;;3.27;2.83;;;;;;;;;;5072382;28;20279;-67
2022/07/31 09:58:57;;;;;;;2.60;2.40;;;;;;;;;;5071581;28;20186;-66
2022/07/31 10:01:23;;;;;;;3.00;2.80;;;;;;;;;;5071706;28;20190;-67
2022/07/31 10:03:50;;;;;;;3.07;2.80;;;;;;;;;;5071358;28;20278;-67
2022/07/31 10:06:16;;;;;;;5.27;2.97;;;;;;;;;;5071455;28;20206;-68
2022/07/31 10:08:45;;;;;;;4.37;3.20;;;;;;;;;;5072790;28;20204;-66
2022/07/31 10:11:11;;;;;;;3.73;2.80;;;;;;;;;;5072966;28;20173;-66
2022/07/31 10:13:39;;;;;;;3.43;2.73;;;;;;;;;;5071585;28;20190;-66
2022/07/31 10:16:06;;;;;;;3.00;2.80;;;;;;;;;;5072884;28;20200;-65
2022/07/31 10:18:35;;;;;;;3.67;2.80;;;;;;;;;;5071233;28;20682;-67
2022/07/31 10:21:02;;;;;;;5.30;2.97;;;;;;;;;;5071165;28;20181;-67
2022/07/31 10:23:29;;;;;;;4.77;2.93;;;;;;;;;;5072503;28;20289;-67
2022/07/31 10:25:57;;;;;;;5.67;2.83;;;;;;;;;;5072904;28;20592;-66
2022/07/31 10:28:23;;;;;;;3.00;2.70;;;;;;;;;;5071089;28;20217;-67
2022/07/31 10:30:49;;;;;;;3.17;2.87;;;;;;;;;;5072702;28;20744;-67
2022/07/31 10:33:16;;;;;;;4.63;2.87;;;;;;;;;;5075840;28;20174;-67
2022/07/31 10:35:49;;;;;;;2.70;2.50;;;;;;;;;;5076092;28;20665;-67
2022/07/31 10:38:18;;;;;;;3.43;2.80;;;;;;;;;;5074749;28;20202;-67
2022/07/31 10:40:47;;;;;;;5.47;2.73;;;;;;;;;;5076190;28;20268;-68
2022/07/31 10:43:28;;;;;;;3.40;3.07;;;;;;;;;;5076054;28;20201;-67
2022/07/31 10:45:54;;;;;;;2.83;2.63;;;;;;;;;;5074557;28;20178;-67
2022/07/31 10:48:21;;;;;;;2.63;2.33;;;;;;;;;;5075873;28;20681;-67
2022/07/31 10:50:47;;;;;;;3.67;2.43;;;;;;;;;;5075884;28;20653;-67
2022/07/31 10:53:15;;;;;;;3.10;2.80;;;;;;;;;;5074505;28;20178;-67
2022/07/31 10:55:41;;;;;;;3.15;2.70;;;;;;;;;;5074526;28;20433;-67
2022/07/31 10:58:08;;;;;;;3.93;2.50;;;;;;;;;;5074301;28;20621;-67
2022/07/31 11:00:34;;;;;;;2.80;2.60;;;;;;;;;;5075497;28;20202;-67
2022/07/31 11:03:11;;;;;;;3.50;2.73;;;;;;;;;;5074213;28;20201;-67
2022/07/31 11:05:37;;;;;;;2.97;2.70;;;;;;;;;;5075884;28;20197;-67
2022/07/31 11:08:04;;;;;;;2.80;2.60;;;;;;;;;;5075525;28;20243;-67
2022/07/31 11:10:32;;;;;;;4.60;2.60;;;;;;;;;;5075779;28;20180;-68
2022/07/31 11:13:09;;;;;;;3.20;2.90;;;;;;;;;;5075645;28;20170;-67
2022/07/31 11:15:38;;;;;;;4.30;2.60;;;;;;;;;;5076056;28;20158;-68
2022/07/31 11:18:31;;;;;;;3.00;2.70;;;;;;;;;;5075691;28;20217;-67
2022/07/31 11:21:01;;;;;;;5.00;2.60;;;;;;;;;;5072484;28;20190;-68
2022/07/31 11:23:31;;;;;;;5.90;2.97;;;;;;;;;;5073829;28;20335;-68
2022/07/31 11:26:00;;;;;;;3.83;3.13;;;;;;;;;;5075219;28;20224;-67
2022/07/31 11:28:26;;;;;;;3.17;2.80;;;;;;;;;;5073747;28;20786;-67
2022/07/31 11:31:03;;;;;;;3.00;2.80;;;;;;;;;;5073852;28;20177;-66
2022/07/31 11:33:37;;;;;;;4.83;2.63;;;;;;;;;;5075260;28;20182;-68
2022/07/31 11:36:17;;;;;;;4.23;3.83;;;;;;;;;;5075284;28;20547;-68
2022/07/31 11:38:44;;;;;;;3.60;2.70;;;;;;;;;;5074804;28;20246;-68
2022/07/31 11:41:10;;;;;;;3.87;2.57;;;;;;;;;;5074908;28;20178;-68
2022/07/31 11:43:38;;;;;;;3.50;2.57;;;;;;;;;;5074649;28;20239;-68
2022/07/31 11:46:04;;;;;;;2.57;2.37;;;;;;;;;;5073673;28;20177;-67
2022/07/31 11:48:31;;;;;;;3.00;2.70;;;;;;;;;;5076052;28;20251;-67
2022/07/31 11:50:58;;;;;;;4.37;3.03;;;;;;;;;;5075027;28;20170;-66
2022/07/31 11:53:24;;;;;;;2.77;2.47;;;;;;;;;;5074970;28;20170;-68
2022/07/31 11:55:53;;;;;;;2.60;2.40;;;;;;;;;;5073318;28;20178;-67
2022/07/31 11:58:21;;;;;;;3.13;2.70;;;;;;;;;;5073014;28;20213;-66
2022/07/31 12:00:51;;;;;;;2.93;2.73;;;;;;;;;;5073286;28;20182;-67
2022/07/31 12:03:18;;;;;;;3.47;2.47;;;;;;;;;;5074294;28;20228;-67
2022/07/31 12:05:45;;;;;;;6.57;3.37;;;;;;;;;;5074346;28;20185;-67
2022/07/31 12:08:11;;;;;;;5.20;3.43;;;;;;;;;;5072869;28;20623;-68
2022/07/31 12:10:38;;;;;;;4.60;3.20;;;;;;;;;;5074325;28;20521;-67
2022/07/31 12:13:04;;;;;;;3.17;2.57;;;;;;;;;;5074327;28;20658;-66
2022/07/31 12:15:30;;;;;;;6.63;4.67;;;;;;;;;;5072872;28;20178;-67
2022/07/31 12:18:00;;;;;;;3.20;2.90;;;;;;;;;;5074659;28;20197;-67
2022/07/31 12:20:26;;;;;;;3.63;2.80;;;;;;;;;;5074238;28;20265;-67
2022/07/31 12:23:02;;;;;;;3.00;2.60;;;;;;;;;;5074043;28;20208;-67
2022/07/31 12:25:38;;;;;;;3.10;2.73;;;;;;;;;;5074018;28;20170;-67
2022/07/31 12:28:04;;;;;;;6.63;3.40;;;;;;;;;;5073792;28;20680;-67
2022/07/31 12:30:30;;;;;;;3.73;2.90;;;;;;;;;;5073819;28;20178;-68
2022/07/31 12:33:03;;;;;;;3.63;3.23;;;;;;;;;;5072636;28;20277;-67
2022/07/31 12:35:34;;;;;;;4.00;2.90;;;;;;;;;;5074113;28;20606;-67
2022/07/31 12:38:00;;;;;;;3.00;2.80;;;;;;;;;;5072472;28;20205;-67
2022/07/31 12:40:27;;;;;;;2.90;2.70;;;;;;;;;;5073663;28;20186;-67
2022/07/31 12:42:53;;;;;;;5.00;3.20;;;;;;;;;;5072296;28;20206;-66
2022/07/31 12:45:33;;;;;;;5.60;3.00;;;;;;;;;;5072347;28;20174;-66
2022/07/31 12:47:59;;;;;;;3.50;3.10;;;;;;;;;;5073922;28;20197;-67
2022/07/31 12:50:26;;;;;;;4.57;3.10;;;;;;;;;;5073728;28;20208;-66
2022/07/31 12:52:53;;;;;;;4.47;3.03;;;;;;;;;;5073527;28;20178;-67
2022/07/31 12:55:19;;;;;;;4.57;3.13;;;;;;;;;;5071774;28;20186;-66
2022/07/31 12:57:46;;;;;;;3.90;3.60;;;;;;;;;;5073570;28;20204;-65
2022/07/31 13:00:12;;;;;;;3.17;2.97;;;;;;;;;;5073947;28;20182;-67
2022/07/31 13:02:38;;;;;;;3.40;3.10;;;;;;;;;;5073390;28;20209;-67
2022/07/31 13:05:04;;;;;;;6.40;3.20;;;;;;;;;;5073853;28;20524;-67
2022/07/31 13:07:30;;;;;;;3.30;3.00;;;;;;;;;;5073821;28;20198;-67
2022/07/31 13:09:56;;;;;;;3.67;3.37;;;;;;;;;;5073451;28;20174;-67
2022/07/31 13:12:22;;;;;;;3.03;2.83;;;;;;;;;;5073633;28;20303;-67
2022/07/31 13:14:48;;;;;;;3.40;3.10;;;;;;;;;;5072014;28;20280;-67
2022/07/31 13:17:14;;;;;;;3.43;3.07;;;;;;;;;;5073235;28;20209;-67
2022/07/31 13:19:40;;;;;;;3.43;3.13;;;;;;;;;;5073352;28;20181;-67
2022/07/31 13:22:06;;;;;;;3.20;3.00;;;;;;;;;;5071958;28;20181;-67
2022/07/31 13:24:32;;;;;;;4.00;2.83;;;;;;;;;;5073602;28;20223;-67
2022/07/31 13:26:58;;;;;;;3.63;3.33;;;;;;;;;;5073703;28;20221;-67
2022/07/31 13:29:24;;;;;;;3.03;2.80;;;;;;;;;;5074181;28;20162;-67
2022/07/31 13:31:50;;;;;;;5.63;3.10;;;;;;;;;;5073753;28;20184;-67
2022/07/31 13:34:16;;;;;;;3.70;2.60;;;;;;;;;;5073915;28;20185;-67
2022/07/31 13:36:42;;;;;;;3.03;2.83;;;;;;;;;;5073909;28;20200;-65
2022/07/31 13:39:08;;;;;;;3.30;3.00;;;;;;;;;;5073335;28;20185;-66
2022/07/31 13:41:34;;;;;;;3.43;3.13;;;;;;;;;;5071662;28;20186;-67
2022/07/31 13:44:00;;;;;;;3.37;2.90;;;;;;;;;;5087289;22;20189;-71
2022/07/31 13:46:27;;;;;;;3.20;3.00;;;;;;;;;;5073455;28;20363;-69
2022/07/31 13:48:53;;;;;;;4.37;3.00;;;;;;;;;;5073436;28;20181;-69
2022/07/31 13:51:20;;;;;;;4.13;3.00;;;;;;;;;;5073145;28;20174;-70
2022/07/31 13:53:46;;;;;;;3.03;2.70;;;;;;;;;;5055014;28;20614;-69
2022/07/31 13:56:13;;;;;;;3.03;2.83;;;;;;;;;;5072752;28;20181;-69
2022/07/31 13:58:39;;;;;;;3.07;2.87;;;;;;;;;;5072762;28;20261;-69
2022/07/31 14:01:05;;;;;;;3.60;2.77;;;;;;;;;;5072895;28;20264;-69
2022/07/31 14:03:31;;;;;;;3.53;3.23;;;;;;;;;;5072523;28;20205;-70
2022/07/31 14:05:57;;;;;;;4.33;2.80;;;;;;;;;;5054574;28;20198;-69
2022/07/31 14:08:24;;;;;;;3.60;2.50;;;;;;;;;;5057834;28;20184;-69
2022/07/31 14:10:50;;;;;;;3.63;2.97;;;;;;;;;;5076526;28;20174;-69
2022/07/31 14:13:17;;;;;;;3.47;3.17;;;;;;;;;;5076459;28;20189;-70
2022/07/31 14:15:43;;;;;;;4.50;2.83;;;;;;;;;;5076683;28;20289;-70
2022/07/31 14:18:09;;;;;;;4.83;3.40;;;;;;;;;;5058424;28;20214;-70
2022/07/31 14:20:35;;;;;;;2.90;2.70;;;;;;;;;;5058542;28;20178;-70
2022/07/31 14:23:02;;;;;;;4.40;3.13;;;;;;;;;;5076898;28;20202;-70
2022/07/31 14:25:28;;;;;;;3.43;2.77;;;;;;;;;;5076265;28;20614;-69
2022/07/31 14:27:54;;;;;;;3.30;3.00;;;;;;;;;;5076210;28;20550;-70
2022/07/31 14:30:20;;;;;;;3.20;2.90;;;;;;;;;;5058272;28;20177;-69
2022/07/31 14:32:47;;;;;;;3.37;2.70;;;;;;;;;;5076319;28;20182;-70
2022/07/31 14:35:13;;;;;;;3.00;2.80;;;;;;;;;;5076283;28;20202;-70
2022/07/31 14:37:40;;;;;;;4.03;2.93;;;;;;;;;;5075947;28;20209;-70
2022/07/31 14:40:07;;;;;;;2.93;2.73;;;;;;;;;;5076100;28;20262;-70
2022/07/31 14:42:33;;;;;;;3.13;2.60;;;;;;;;;;5075853;28;20201;-69